メインページ
METAR-TAF:

METAR-TAF

空港 :

アール・マクトゥーム国際空港

ドバイ, アラブ首長国連邦

緯度: 24-53-49N, 経度: 55-09-40E, 海抜: 35m

現時点の気象観測

当レポートは31分前の18:00(UTC)に作成
東/北東の風 8kt
気温 23°C
湿度 57%
気圧 1018 hPa
視程10km以上
1,500メートル以下は雲なし、積乱雲なし

METAR: OMDW 171800Z 07008KT CAVOK 23/14 Q1018 NOSIG

時間: 22:31 (18:31 UTC)

予報

当レポートは1時間41分前の16:50(UTC)に作成
予報は17日の 18時(UTC)から 19日の 00時(UTC)まで有効
の風 8kt
視程10km以上
1,500メートル以下は雲なし、積乱雲なし
18日の 10時(UTC)から 18日の 12時(UTC)まで徐々に
の風 15kt
18日の 15時(UTC)から 18日の 17時(UTC)まで徐々に
の風 7kt

TAF: OMDW 171650Z 1718/1900 10008KT CAVOK BECMG 1810/1812 36015KT BECMG 1815/1817 09007KT

4,000以上の空港の気象観測と天気予報(METAR報とTAF報)

利用可能な観測所は地図上に黄色い丸と赤い丸で示す。

丸の上にカーソルを重ねると観測所名を参照できる。

次にクリックすると気象観測と天気予報を参照できる。

マップの切り替え:黒色「×」印の緑ボタンをクリックして拡大、「-」印の緑ボタンをクリックして縮小、緑色の三角印をクリックして隣りの地図に切り替え


METAR-TAF: